Time;durP1;ratioP1;P1;durP2;ratioP2;P2;SDS_P1;SDS_P2;PMS_P1;PMS_P2;Temp;Humidity;BMP_temperature;BMP_pressure;BME280_temperature;BME280_humidity;BME280_pressure;Samples;Min_cycle;Max_cycle;Signal;HPM_P1;HPM_P2
2021/07/08 00:02:29;;;;;;;16.75;4.72;;;;;;;19.36;69.36;99292.13;2072996;86;21019;-69
2021/07/08 00:05:29;;;;;;;21.42;5.05;;;;;;;19.30;69.36;99288.70;2073422;84;21002;-69
2021/07/08 00:08:29;;;;;;;18.20;4.70;;;;;;;19.27;69.45;99288.98;2073338;86;20990;-70
2021/07/08 00:11:30;;;;;;;19.40;5.37;;;;;;;19.17;69.67;99286.31;2073430;86;21022;-69
2021/07/08 00:14:30;;;;;;;20.90;5.12;;;;;;;19.08;70.34;99285.81;2073314;86;20979;-70
2021/07/08 00:17:31;;;;;;;16.10;4.67;;;;;;;19.03;70.24;99276.90;2073181;86;20999;-69
2021/07/08 00:20:31;;;;;;;15.98;4.80;;;;;;;19.00;69.66;99276.34;2073310;86;21828;-69
2021/07/08 00:23:32;;;;;;;20.20;4.87;;;;;;;18.99;69.89;99278.64;2072902;86;21559;-69
2021/07/08 00:26:32;;;;;;;22.80;5.30;;;;;;;19.01;70.36;99280.20;2073319;85;21073;-69
2021/07/08 00:29:33;;;;;;;15.68;4.83;;;;;;;18.99;70.51;99290.14;2072725;86;20998;-69
2021/07/08 00:32:34;;;;;;;17.10;4.80;;;;;;;18.96;70.52;99285.56;2073299;86;21513;-69
2021/07/08 00:35:34;;;;;;;17.67;4.92;;;;;;;18.93;70.69;99285.34;2072867;84;20947;-69
2021/07/08 00:38:35;;;;;;;17.02;4.55;;;;;;;18.88;70.85;99290.24;2071876;86;21022;-69
2021/07/08 00:41:35;;;;;;;16.65;4.70;;;;;;;18.79;71.15;99289.21;2072546;86;21018;-69
2021/07/08 00:44:36;;;;;;;16.77;4.67;;;;;;;18.73;70.88;99288.39;2073377;86;20998;-70
2021/07/08 00:47:36;;;;;;;17.70;5.10;;;;;;;18.68;71.17;99284.83;2073420;86;20998;-70
2021/07/08 00:50:36;;;;;;;20.52;5.42;;;;;;;18.67;71.06;99279.65;2081955;85;21054;-70
2021/07/08 00:53:37;;;;;;;18.00;5.03;;;;;;;18.61;71.47;99274.88;2082784;85;21489;-70
2021/07/08 00:56:37;;;;;;;18.00;4.83;;;;;;;18.55;71.97;99272.73;2082815;85;20985;-70
2021/07/08 00:59:38;;;;;;;15.95;4.72;;;;;;;18.48;72.26;99279.09;2082729;85;21042;-70
2021/07/08 01:02:38;;;;;;;17.37;4.78;;;;;;;18.44;71.88;99270.53;2082692;85;20962;-70
2021/07/08 01:05:39;;;;;;;18.37;5.10;;;;;;;18.51;71.73;99267.70;2082881;85;21082;-70
2021/07/08 01:08:39;;;;;;;21.12;4.90;;;;;;;18.55;72.11;99263.44;2082866;85;21038;-70
2021/07/08 01:11:40;;;;;;;16.90;5.28;;;;;;;18.55;72.09;99274.06;2082785;84;21090;-70
2021/07/08 01:14:40;;;;;;;17.42;4.90;;;;;;;18.35;72.88;99276.16;2082592;85;21587;-70
2021/07/08 01:17:41;;;;;;;18.67;4.97;;;;;;;18.19;74.30;99291.73;2082769;85;21465;-71
2021/07/08 01:20:41;;;;;;;18.20;5.03;;;;;;;18.01;74.16;99295.45;2082553;85;21014;-73
2021/07/08 01:23:42;;;;;;;16.37;4.60;;;;;;;17.93;74.06;99296.58;2082538;85;21085;-73
2021/07/08 01:26:42;;;;;;;17.10;4.70;;;;;;;17.87;75.83;99311.66;2082751;84;21033;-70
2021/07/08 01:29:43;;;;;;;21.17;5.97;;;;;;;17.84;76.14;99311.43;2082403;84;21553;-70
2021/07/08 01:32:44;;;;;;;18.73;4.95;;;;;;;17.84;76.28;99304.80;2082567;85;21045;-70
2021/07/08 01:35:44;;;;;;;18.52;5.12;;;;;;;17.71;75.87;99304.14;2082852;85;20983;-70
2021/07/08 01:38:44;;;;;;;17.37;5.05;;;;;;;17.71;75.87;99304.14;2082837;85;20982;-70
2021/07/08 01:41:45;;;;;;;18.62;5.25;;;;;;;17.71;75.84;99306.80;2082559;84;21091;-70
2021/07/08 01:44:45;;;;;;;15.70;5.08;;;;;;;17.66;75.41;99307.19;2082773;85;20986;-70
2021/07/08 01:47:46;;;;;;;15.48;5.15;;;;;;;17.65;75.19;99308.98;2082757;85;21481;-70
2021/07/08 01:50:46;;;;;;;19.90;5.50;;;;;;;17.72;75.09;99302.69;2073655;85;21002;-73
2021/07/08 01:53:47;;;;;;;18.73;5.85;;;;;;;17.66;76.08;99311.17;2073281;86;20998;-70
2021/07/08 01:56:47;;;;;;;17.67;5.67;;;;;;;17.58;76.59;99316.25;2073518;86;20982;-69
2021/07/08 01:59:48;;;;;;;14.70;5.03;;;;;;;17.58;76.59;99316.25;2073463;86;21033;-69
2021/07/08 02:02:49;;;;;;;21.65;5.53;;;;;;;17.54;76.15;99321.45;2073085;86;21074;-69
2021/07/08 02:05:49;;;;;;;18.25;5.60;;;;;;;17.48;77.01;99318.35;2073364;86;21489;-72
2021/07/08 02:08:50;;;;;;;17.15;5.30;;;;;;;17.51;77.21;99321.70;2072996;86;21493;-72
2021/07/08 02:11:50;;;;;;;15.98;5.10;;;;;;;17.54;77.07;99320.98;2073264;86;20962;-69
2021/07/08 02:14:50;;;;;;;21.30;5.50;;;;;;;17.55;76.75;99318.66;2073413;86;20966;-68
2021/07/08 02:17:51;;;;;;;18.95;5.83;;;;;;;17.58;77.06;99321.06;2073458;85;20963;-69
2021/07/08 02:20:51;;;;;;;20.88;5.90;;;;;;;17.58;76.91;99333.00;2073428;86;21009;-69
2021/07/08 02:23:52;;;;;;;16.67;5.67;;;;;;;17.56;78.00;99337.59;2073356;86;21010;-69
2021/07/08 02:26:52;;;;;;;20.00;6.00;;;;;;;17.46;77.66;99335.34;2073320;86;21488;-69
2021/07/08 02:29:53;;;;;;;18.85;6.05;;;;;;;17.45;77.88;99331.00;2073283;86;21026;-69
2021/07/08 02:32:53;;;;;;;21.68;5.58;;;;;;;17.46;77.84;99341.98;2073261;86;21001;-69
2021/07/08 02:35:54;;;;;;;16.35;5.53;;;;;;;17.44;77.74;99337.27;2073054;86;21065;-68
2021/07/08 02:38:54;;;;;;;20.52;5.40;;;;;;;17.48;77.46;99340.89;2073455;86;20978;-68
2021/07/08 02:41:54;;;;;;;18.45;5.72;;;;;;;17.51;77.46;99338.94;2073320;86;21062;-68
2021/07/08 02:44:55;;;;;;;16.95;5.35;;;;;;;17.49;77.37;99341.23;2073360;86;21497;-68
2021/07/08 02:47:55;;;;;;;21.12;6.40;;;;;;;17.53;77.17;99339.64;2073241;86;20958;-68
2021/07/08 02:50:56;;;;;;;18.80;5.83;;;;;;;17.57;77.25;99345.92;2105052;84;20997;-70
2021/07/08 02:53:57;;;;;;;16.95;5.58;;;;;;;17.59;77.14;99349.77;2110434;84;21007;-70
2021/07/08 02:56:57;;;;;;;15.90;5.45;;;;;;;17.62;77.11;99346.86;2110382;84;20982;-68
2021/07/08 02:59:58;;;;;;;18.82;5.60;;;;;;;17.70;77.04;99352.85;2110363;84;21000;-69
2021/07/08 03:02:59;;;;;;;19.32;5.55;;;;;;;17.77;76.93;99356.69;2109826;84;21073;-69
2021/07/08 03:05:59;;;;;;;16.62;5.45;;;;;;;17.81;77.21;99357.66;2110190;84;21032;-69
2021/07/08 03:08:59;;;;;;;21.82;6.00;;;;;;;17.86;76.96;99359.06;2110281;84;21108;-69
2021/07/08 03:12:00;;;;;;;17.48;6.00;;;;;;;17.91;76.85;99345.80;2110328;84;20981;-69
2021/07/08 03:15:00;;;;;;;17.30;5.50;;;;;;;18.00;76.65;99347.70;2110305;84;21004;-69
2021/07/08 03:18:01;;;;;;;19.57;5.60;;;;;;;18.09;76.42;99349.23;2110385;83;21004;-70
2021/07/08 03:21:01;;;;;;;21.05;5.53;;;;;;;18.20;76.38;99346.49;2110398;84;21048;-69
2021/07/08 03:24:02;;;;;;;23.12;5.97;;;;;;;18.32;76.25;99343.30;2110165;84;21076;-68
2021/07/08 03:27:02;;;;;;;18.77;5.22;;;;;;;18.47;75.91;99343.80;2110368;84;21615;-68
2021/07/08 03:30:04;;;;;;;19.30;5.65;;;;;;;18.63;75.71;99334.88;2110256;84;21071;-69
2021/07/08 03:33:04;;;;;;;16.42;5.33;;;;;;;18.71;75.54;99338.19;2110567;84;21060;-67
2021/07/08 03:36:05;;;;;;;15.93;5.10;;;;;;;18.81;75.43;99339.06;2110459;84;21016;-67
2021/07/08 03:39:06;;;;;;;17.48;5.22;;;;;;;18.86;75.27;99343.97;2110303;84;20996;-67
2021/07/08 03:42:06;;;;;;;21.48;5.83;;;;;;;18.88;75.22;99338.08;2110409;84;21496;-67
2021/07/08 03:45:07;;;;;;;22.25;6.05;;;;;;;18.91;75.63;99344.45;2110234;84;21005;-66
2021/07/08 03:48:07;;;;;;;21.37;7.45;;;;;;;18.85;75.97;99345.80;2110286;84;21008;-67
2021/07/08 03:51:07;;;;;;;21.65;7.08;;;;;;;18.82;76.36;99347.40;2079024;84;21098;-66
2021/07/08 03:54:08;;;;;;;27.02;7.70;;;;;;;18.78;76.25;99349.96;2073497;86;21018;-66
2021/07/08 03:57:08;;;;;;;25.68;7.55;;;;;;;18.74;76.24;99351.20;2073446;86;21069;-66
2021/07/08 04:00:09;;;;;;;22.48;7.00;;;;;;;18.75;76.31;99357.34;2080786;84;20999;-65
2021/07/08 04:03:10;;;;;;;23.87;8.23;;;;;;;18.81;77.24;99356.83;2108474;84;21007;-66
2021/07/08 04:06:10;;;;;;;24.77;8.63;;;;;;;18.83;76.74;99357.53;2108139;84;21011;-66
2021/07/08 04:09:11;;;;;;;25.05;8.58;;;;;;;18.87;76.47;99356.32;2108436;84;21059;-66
2021/07/08 04:12:11;;;;;;;27.02;8.65;;;;;;;18.92;76.44;99355.45;2108715;84;20964;-66
2021/07/08 04:15:11;;;;;;;23.95;9.65;;;;;;;19.08;75.99;99350.95;2108634;84;21023;-66
2021/07/08 04:18:12;;;;;;;24.85;9.28;;;;;;;19.16;76.11;99356.91;2108636;84;21023;-64
2021/07/08 04:21:12;;;;;;;27.17;9.65;;;;;;;19.14;76.01;99355.72;2104323;84;21062;-67
2021/07/08 04:24:13;;;;;;;26.42;9.60;;;;;;;19.24;75.68;99361.06;2088804;84;21601;-67
2021/07/08 04:27:13;;;;;;;24.02;8.93;;;;;;;19.31;75.70;99363.53;2104455;84;21007;-67
2021/07/08 04:30:14;;;;;;;23.15;9.63;;;;;;;19.36;76.16;99373.75;2076053;84;21023;-66
2021/07/08 04:33:14;;;;;;;23.10;8.80;;;;;;;19.27;76.69;99383.89;2073562;86;21039;-66
2021/07/08 04:36:14;;;;;;;25.85;9.50;;;;;;;19.17;77.31;99396.66;2072768;86;21089;-66
2021/07/08 04:39:15;;;;;;;23.70;9.40;;;;;;;19.00;77.76;99401.28;2073085;86;21031;-66
2021/07/08 04:42:15;;;;;;;22.65;8.75;;;;;;;18.87;78.82;99409.47;2072573;85;21110;-66
2021/07/08 04:45:16;;;;;;;24.50;9.00;;;;;;;18.77;78.89;99416.53;2071808;86;21023;-66
2021/07/08 04:48:17;;;;;;;26.85;9.73;;;;;;;18.71;78.28;99412.58;2073609;86;21035;-67
2021/07/08 04:51:17;;;;;;;24.82;9.25;;;;;;;18.70;79.23;99417.06;2073462;84;21035;-66
2021/07/08 04:54:18;;;;;;;26.87;9.83;;;;;;;18.59;79.47;99417.59;2073881;86;20972;-67
2021/07/08 04:57:18;;;;;;;31.17;10.15;;;;;;;18.51;80.27;99419.09;2073878;86;21078;-67
2021/07/08 05:00:20;;;;;;;28.92;10.82;;;;;;;18.58;79.62;99422.58;2073877;86;21122;-67
2021/07/08 05:03:21;;;;;;;29.23;10.68;;;;;;;18.65;80.60;99421.08;2073854;86;21070;-67
2021/07/08 05:06:22;;;;;;;26.90;10.00;;;;;;;18.66;80.43;99420.95;2076864;84;21595;-66
2021/07/08 05:09:22;;;;;;;32.40;12.20;;;;;;;18.76;80.66;99421.02;2108948;84;21008;-67
2021/07/08 05:12:23;;;;;;;31.52;11.57;;;;;;;18.75;79.87;99415.80;2108838;84;20964;-67
2021/07/08 05:15:23;;;;;;;31.35;11.28;;;;;;;18.75;79.87;99415.80;2108968;84;20960;-66
2021/07/08 05:18:24;;;;;;;30.20;12.43;;;;;;;18.76;80.55;99418.82;2108699;84;21139;-66
2021/07/08 05:21:24;;;;;;;31.70;13.95;;;;;;;18.70;80.90;99422.37;2104421;84;21030;-66
2021/07/08 05:24:26;;;;;;;28.27;12.03;;;;;;;18.63;81.73;99421.22;2073202;86;21578;-66
2021/07/08 05:27:27;;;;;;;;;;;;;;;18.56;81.30;99423.17;2074920;86;21007;-66
2021/07/08 05:30:27;;;;;;;35.63;12.18;;;;;;;18.48;81.72;99418.03;2074000;86;20141;-66
2021/07/08 05:33:28;;;;;;;34.63;13.50;;;;;;;18.54;81.41;99415.34;2073928;86;21526;-66
2021/07/08 05:36:28;;;;;;;33.28;13.30;;;;;;;18.57;81.61;99416.41;2073902;86;21083;-66
2021/07/08 05:39:29;;;;;;;41.60;13.85;;;;;;;18.71;81.19;99415.23;2073465;86;21051;-66
2021/07/08 05:42:29;;;;;;;35.33;13.45;;;;;;;18.86;80.42;99416.62;2073997;86;21019;-66
2021/07/08 05:45:30;;;;;;;35.52;12.85;;;;;;;18.93;80.01;99422.22;2074166;86;21066;-66
2021/07/08 05:48:30;;;;;;;35.60;13.38;;;;;;;19.01;80.00;99418.42;2073669;86;21039;-66
2021/07/08 05:51:31;;;;;;;35.58;13.65;;;;;;;19.15;79.60;99419.02;2107160;84;21584;-66
2021/07/08 05:54:32;;;;;;;37.75;15.32;;;;;;;19.27;79.61;99420.63;2116920;84;21530;-66
2021/07/08 05:57:32;;;;;;;41.68;16.32;;;;;;;19.28;79.53;99425.44;2116965;84;21075;-66
2021/07/08 06:00:33;;;;;;;39.40;16.52;;;;;;;19.06;79.92;99437.13;2116874;84;21012;-67
2021/07/08 06:03:33;;;;;;;38.10;15.90;;;;;;;18.95;80.67;99432.25;2116829;84;21061;-68
2021/07/08 06:06:34;;;;;;;50.67;17.00;;;;;;;18.95;80.73;99438.90;2116839;84;20996;-68
2021/07/08 06:09:34;;;;;;;47.17;18.45;;;;;;;18.93;80.85;99437.34;2116666;84;21539;-68
2021/07/08 06:12:35;;;;;;;43.30;18.30;;;;;;;18.95;81.07;99437.56;2116686;84;21009;-68
2021/07/08 06:15:35;;;;;;;47.20;18.82;;;;;;;18.97;81.73;99438.27;2116588;84;21059;-67
2021/07/08 06:18:36;;;;;;;47.17;19.23;;;;;;;18.94;81.19;99434.55;2116721;84;21012;-68
2021/07/08 06:21:37;;;;;;;43.75;18.42;;;;;;;18.91;81.59;99440.13;2116723;84;21036;-67
2021/07/08 06:24:37;;;;;;;50.33;19.77;;;;;;;18.99;81.10;99432.34;2124089;83;21551;-67
2021/07/08 06:27:38;;;;;;;45.08;18.85;;;;;;;19.13;80.91;99434.28;2151608;83;21571;-67
2021/07/08 06:30:38;;;;;;;45.73;19.02;;;;;;;19.13;80.91;99434.28;2152184;83;21047;-67
2021/07/08 06:33:39;;;;;;;50.43;20.20;;;;;;;19.29;80.12;99442.59;2152306;83;21080;-67
2021/07/08 06:36:39;;;;;;;46.68;20.12;;;;;;;19.41;79.89;99448.67;2153171;83;20997;-67
2021/07/08 06:39:40;;;;;;;46.60;20.60;;;;;;;19.42;79.87;99449.50;2153005;83;21084;-67
2021/07/08 06:42:40;;;;;;;45.40;19.57;;;;;;;19.47;79.58;99445.96;2152924;83;21067;-68
2021/07/08 06:45:40;;;;;;;39.63;18.70;;;;;;;19.50;79.85;99447.84;2152913;83;21057;-67
2021/07/08 06:48:43;;;;;;;39.70;17.70;;;;;;;19.44;80.85;99452.39;2152251;83;21079;-67
2021/07/08 06:51:43;;;;;;;45.38;19.62;;;;;;;19.46;80.25;99453.58;2119172;83;21590;-67
2021/07/08 06:54:44;;;;;;;40.17;20.52;;;;;;;19.52;80.20;99447.23;2107082;84;21474;-67
2021/07/08 07:00:46;;;;;;;46.00;22.40;;;;;;;19.80;79.54;99443.97;2109256;83;20964;-67
2021/07/08 07:03:47;;;;;;;53.23;26.82;;;;;;;19.85;79.03;99436.39;2108707;84;20983;-67
2021/07/08 07:06:47;;;;;;;52.20;25.30;;;;;;;19.94;78.78;99432.05;2108506;84;21028;-65
2021/07/08 07:09:48;;;;;;;54.85;27.32;;;;;;;20.00;78.76;99427.03;2092164;84;21047;-67
2021/07/08 07:12:48;;;;;;;52.73;26.02;;;;;;;20.02;78.59;99429.55;2108294;84;21055;-66
2021/07/08 07:15:49;;;;;;;50.90;26.17;;;;;;;20.13;78.37;99434.73;2076988;84;20984;-67
2021/07/08 07:18:49;;;;;;;55.52;27.55;;;;;;;20.19;78.00;99434.67;2073603;86;21071;-66
2021/07/08 07:21:50;;;;;;;53.15;26.80;;;;;;;20.26;77.83;99439.78;2073604;86;20988;-67
2021/07/08 07:24:52;;;;;;;51.28;26.33;;;;;;;20.30;77.79;99442.52;2073747;86;21498;-67
2021/07/08 07:27:52;;;;;;;48.35;24.35;;;;;;;20.31;77.45;99439.35;2082222;84;21040;-67
2021/07/08 07:30:53;;;;;;;47.90;24.40;;;;;;;20.41;77.32;99448.17;2108623;84;21035;-67
2021/07/08 07:33:53;;;;;;;49.63;26.17;;;;;;;20.55;77.19;99442.91;2108400;83;21538;-67
2021/07/08 07:36:54;;;;;;;53.23;25.97;;;;;;;20.67;76.62;99436.95;2108209;84;21143;-67
2021/07/08 07:39:54;;;;;;;50.60;26.50;;;;;;;20.70;76.49;99435.33;2108199;84;21051;-67
2021/07/08 07:42:54;;;;;;;41.75;21.77;;;;;;;20.73;76.33;99441.69;2108681;84;21031;-67
2021/07/08 07:45:55;;;;;;;44.27;23.00;;;;;;;20.76;76.32;99432.11;2108637;84;21051;-66
2021/07/08 07:48:55;;;;;;;46.73;23.73;;;;;;;20.97;76.18;99423.88;2105567;84;21015;-67
2021/07/08 07:51:56;;;;;;;51.05;26.80;;;;;;;21.17;75.39;99427.31;2108621;84;21027;-66
2021/07/08 07:54:56;;;;;;;47.55;25.65;;;;;;;21.17;75.02;99434.48;2109764;84;21565;-67
2021/07/08 07:57:57;;;;;;;46.55;25.92;;;;;;;21.27;75.00;99429.94;2109628;84;21451;-67
2021/07/08 08:00:59;;;;;;;45.95;25.15;;;;;;;21.52;74.70;99420.92;2082192;84;21017;-67
2021/07/08 08:04:00;;;;;;;43.78;23.07;;;;;;;21.70;74.00;99423.63;2081598;84;21047;-67
2021/07/08 08:10:04;;;;;;;39.60;21.00;;;;;;;22.12;73.02;99413.20;2110888;84;21046;-67
2021/07/08 08:13:04;;;;;;;41.03;21.40;;;;;;;22.31;72.71;99405.97;2103409;84;21494;-66
2021/07/08 08:16:07;;;;;;;40.77;22.27;;;;;;;22.44;71.56;99412.28;2092714;84;21024;-67
2021/07/08 08:19:07;;;;;;;40.73;22.22;;;;;;;22.51;71.21;99413.34;2085913;84;20959;-66
2021/07/08 08:22:10;;;;;;;40.40;22.27;;;;;;;22.65;71.26;99418.11;2106752;84;21003;-66
2021/07/08 08:25:10;;;;;;;41.85;21.77;;;;;;;22.74;70.73;99416.83;2106862;84;21055;-67
2021/07/08 08:28:10;;;;;;;40.33;21.07;;;;;;;22.65;70.84;99403.92;2111379;84;21003;-66
2021/07/08 08:31:11;;;;;;;34.97;19.37;;;;;;;22.78;71.12;99415.02;2111315;84;21023;-67
2021/07/08 08:34:11;;;;;;;39.07;20.80;;;;;;;23.17;70.08;99405.23;2111536;84;21023;-67
2021/07/08 08:37:12;;;;;;;37.03;21.33;;;;;;;23.31;69.18;99414.47;2092476;84;21074;-66
2021/07/08 08:40:13;;;;;;;35.87;20.00;;;;;;;23.63;69.16;99411.58;2093001;84;21074;-65
2021/07/08 08:43:14;;;;;;;;;;;;;;;23.98;67.51;99410.99;2090289;84;20992;-68
2021/07/08 08:46:14;;;;;;;36.03;19.32;;;;;;;24.38;66.83;99408.50;2088227;84;20109;-67
2021/07/08 08:49:15;;;;;;;36.77;19.20;;;;;;;25.00;66.09;99408.41;2091712;84;21015;-67
2021/07/08 08:52:15;;;;;;;34.63;19.23;;;;;;;25.26;65.33;99394.70;2089538;84;20998;-67
2021/07/08 08:55:16;;;;;;;38.07;20.20;;;;;;;25.42;63.10;99393.30;2091693;84;20971;-67
2021/07/08 08:58:18;;;;;;;35.00;19.13;;;;;;;25.46;63.23;99398.31;2088234;84;21085;-68
2021/07/08 09:01:19;;;;;;;36.23;20.08;;;;;;;25.62;63.44;99390.70;2073201;86;21485;-69
2021/07/08 09:04:19;;;;;;;33.27;18.97;;;;;;;25.75;62.55;99396.31;2073475;86;21003;-69
2021/07/08 09:07:21;;;;;;;32.27;19.13;;;;;;;25.94;61.86;99399.85;2073482;86;21046;-68
2021/07/08 09:10:22;;;;;;;31.75;17.92;;;;;;;26.12;60.90;99397.42;2078034;84;21030;-68
2021/07/08 09:13:22;;;;;;;32.40;18.07;;;;;;;26.23;61.76;99390.28;2092578;84;21569;-67
2021/07/08 09:16:22;;;;;;;30.10;17.33;;;;;;;26.68;61.01;99369.31;2103934;84;21023;-66
2021/07/08 09:19:24;;;;;;;30.47;18.10;;;;;;;27.17;60.96;99371.47;2073715;85;21031;-66
2021/07/08 09:22:25;;;;;;;30.17;18.20;;;;;;;27.33;60.30;99361.52;2073466;86;21015;-68
2021/07/08 09:25:26;;;;;;;34.83;20.80;;;;;;;27.05;58.46;99359.50;2073759;86;21043;-67
2021/07/08 09:28:26;;;;;;;29.83;19.33;;;;;;;27.38;58.85;99369.88;2081345;84;21574;-67
2021/07/08 09:31:27;;;;;;;31.80;18.60;;;;;;;27.52;57.50;99354.70;2096434;84;20976;-65
2021/07/08 09:34:27;;;;;;;31.83;18.97;;;;;;;27.76;57.97;99357.55;2097865;84;20979;-67
2021/07/08 09:37:28;;;;;;;33.03;19.53;;;;;;;28.08;56.66;99350.80;2073874;85;20988;-68
2021/07/08 09:40:28;;;;;;;30.50;18.53;;;;;;;28.03;56.20;99353.76;2073821;86;21019;-68
2021/07/08 09:43:29;;;;;;;31.13;18.20;;;;;;;27.87;56.60;99356.19;2073688;86;21007;-68
2021/07/08 09:46:30;;;;;;;29.72;17.48;;;;;;;27.88;56.55;99349.25;2073286;86;21542;-68
2021/07/08 09:49:31;;;;;;;30.17;18.13;;;;;;;28.33;54.74;99343.13;2073666;86;20984;-68
2021/07/08 09:52:32;;;;;;;31.07;18.23;;;;;;;27.95;56.08;99350.14;2073690;84;21003;-68
2021/07/08 09:55:33;;;;;;;;;;;;;;;28.08;56.70;99350.80;2075546;86;21047;-68
2021/07/08 09:58:34;;;;;;;31.42;17.00;;;;;;;28.58;55.89;99353.98;2073993;86;20461;-68
2021/07/08 10:01:35;;;;;;;29.70;17.27;;;;;;;28.85;55.24;99355.00;2074141;86;21059;-68
2021/07/08 10:04:35;;;;;;;29.17;17.30;;;;;;;29.35;53.76;99348.90;2074251;86;20999;-67
2021/07/08 10:07:36;;;;;;;29.90;16.57;;;;;;;29.38;54.80;99363.34;2074105;86;21055;-68
2021/07/08 10:10:37;;;;;;;28.87;17.23;;;;;;;29.54;54.46;99340.52;2073830;86;21091;-67
2021/07/08 10:13:37;;;;;;;32.07;19.77;;;;;;;30.12;53.92;99340.49;2073965;86;21066;-67
2021/07/08 10:16:37;;;;;;;28.77;16.20;;;;;;;30.89;53.07;99334.03;2074003;86;21092;-68
2021/07/08 10:19:38;;;;;;;27.20;16.17;;;;;;;31.16;49.68;99332.61;2074065;86;21015;-68
2021/07/08 10:22:38;;;;;;;28.60;16.93;;;;;;;30.87;50.36;99342.88;2073812;86;21067;-68
2021/07/08 10:25:39;;;;;;;29.57;16.63;;;;;;;30.72;50.44;99339.61;2074201;86;21002;-68
2021/07/08 10:28:39;;;;;;;28.92;17.73;;;;;;;30.39;49.63;99337.24;2073595;86;21091;-68
2021/07/08 10:31:41;;;;;;;30.03;17.30;;;;;;;29.99;50.10;99332.39;2074122;86;21498;-68
2021/07/08 10:34:41;;;;;;;;;;;;;;;29.87;51.32;99326.25;2076310;86;21494;-68
2021/07/08 10:37:43;;;;;;;33.33;16.87;;;;;;;30.41;52.31;99329.77;2074133;86;20205;-68
2021/07/08 10:40:44;;;;;;;29.18;16.52;;;;;;;30.65;49.77;99321.20;2073859;86;21529;-68
2021/07/08 10:43:44;;;;;;;28.53;17.23;;;;;;;30.91;50.42;99312.97;2073988;86;21099;-67
2021/07/08 10:46:45;;;;;;;28.53;17.57;;;;;;;31.39;49.23;99314.45;2074247;86;21003;-67
2021/07/08 10:49:46;;;;;;;28.52;17.87;;;;;;;31.48;49.39;99300.11;2073796;86;21774;-67
2021/07/08 10:52:46;;;;;;;28.70;17.40;;;;;;;31.45;49.20;99299.20;2073474;84;21051;-68
2021/07/08 10:55:47;;;;;;;31.68;16.40;;;;;;;31.36;48.40;99304.05;2073814;86;21510;-67
2021/07/08 10:58:50;;;;;;;28.10;16.77;;;;;;;31.20;48.96;99299.95;2073485;86;21561;-68
2021/07/08 11:01:51;;;;;;;29.45;18.05;;;;;;;31.48;48.98;99295.20;2073545;85;21047;-67
2021/07/08 11:04:52;;;;;;;34.25;17.70;;;;;;;31.50;48.36;99287.70;2073688;86;21007;-67
2021/07/08 11:07:52;;;;;;;32.53;17.13;;;;;;;31.64;48.62;99289.83;2073951;85;21007;-66
2021/07/08 11:10:53;;;;;;;37.53;19.30;;;;;;;31.83;48.12;99285.29;2073701;85;21004;-67
2021/07/08 11:13:53;;;;;;;28.93;18.00;;;;;;;32.43;48.24;99282.03;2073842;85;21486;-66
2021/07/08 11:16:54;;;;;;;32.93;18.17;;;;;;;32.51;47.25;99283.61;2073534;86;21082;-67
2021/07/08 11:19:55;;;;;;;33.15;19.00;;;;;;;32.10;47.28;99279.92;2073564;86;21519;-67
2021/07/08 11:22:55;;;;;;;30.37;17.83;;;;;;;31.88;47.41;99283.58;2073868;86;21030;-67
2021/07/08 11:25:56;;;;;;;30.27;18.23;;;;;;;31.73;47.41;99275.75;2074088;85;21015;-67
2021/07/08 11:28:57;;;;;;;33.75;19.25;;;;;;;31.55;47.77;99279.21;2073282;86;21066;-67
2021/07/08 11:31:57;;;;;;;33.93;22.00;;;;;;;31.62;48.19;99281.88;2073826;86;20995;-67
2021/07/08 11:34:58;;;;;;;30.10;18.13;;;;;;;31.98;48.65;99275.45;2073810;86;21534;-67
2021/07/08 11:38:00;;;;;;;31.25;17.80;;;;;;;32.32;46.65;99272.74;2073798;86;21482;-67
2021/07/08 11:41:01;;;;;;;34.33;19.37;;;;;;;32.58;46.83;99268.89;2073607;86;21059;-67
2021/07/08 11:44:04;;;;;;;32.88;18.42;;;;;;;32.67;45.87;99268.09;2073739;86;21617;-67
2021/07/08 11:47:04;;;;;;;33.83;17.32;;;;;;;33.16;45.79;99264.02;2050015;86;21016;-67
2021/07/08 11:50:04;;;;;;;30.43;16.85;;;;;;;33.56;45.58;99262.61;2073729;85;21046;-67
2021/07/08 11:53:05;;;;;;;25.60;14.80;;;;;;;33.79;45.41;99251.81;2073722;84;21589;-67
2021/07/08 11:56:05;;;;;;;27.10;16.02;;;;;;;34.01;44.32;99247.95;2073720;86;21522;-67
2021/07/08 11:59:06;;;;;;;;;;;;;;;34.07;44.40;99244.00;2076367;86;21003;-67
2021/07/08 12:02:06;;;;;;;27.13;15.40;;;;;;;34.39;43.46;99239.55;2074190;86;20171;-67
2021/07/08 12:05:06;;;;;;;;;;;;;;;34.91;42.90;99235.98;2076043;86;21007;-67
2021/07/08 12:08:07;;;;;;;28.33;13.00;;;;;;;35.11;43.27;99240.98;2073886;86;20173;-67
2021/07/08 12:11:10;;;;;;;;;;;;;;;35.33;42.23;99227.48;2075945;86;21218;-67
2021/07/08 12:14:10;;;;;;;24.55;13.15;;;;;;;35.35;42.12;99226.17;2075179;86;20483;-67
2021/07/08 12:17:10;;;;;;;;;;;;;;;35.32;42.15;99221.77;2076094;85;21007;-67
2021/07/08 12:20:11;;;;;;;26.93;13.50;;;;;;;35.33;41.64;99216.06;2073916;86;20137;-67
2021/07/08 12:23:11;;;;;;;26.65;13.58;;;;;;;35.34;41.56;99213.64;2073740;85;21015;-67
2021/07/08 12:26:11;;;;;;;25.17;13.25;;;;;;;35.49;41.68;99210.88;2073706;86;21604;-67
2021/07/08 12:29:12;;;;;;;25.72;13.18;;;;;;;35.51;41.15;99214.98;2073638;86;21526;-67
2021/07/08 12:32:13;;;;;;;;;;;;;;;35.43;41.62;99214.56;2075752;86;21023;-67
2021/07/08 12:35:14;;;;;;;26.40;12.75;;;;;;;35.31;40.43;99207.29;2074018;86;20165;-67
2021/07/08 12:38:14;;;;;;;;;;;;;;;35.28;39.88;99198.77;2076111;86;21106;-67
2021/07/08 12:41:15;;;;;;;26.63;12.70;;;;;;;34.99;40.54;99198.27;2073739;86;20144;-67
2021/07/08 12:44:15;;;;;;;22.93;12.45;;;;;;;35.04;41.33;99195.64;2073506;86;21003;-67
2021/07/08 12:47:16;;;;;;;24.07;13.18;;;;;;;35.33;41.37;99190.69;2073515;86;21034;-67
2021/07/08 12:50:16;;;;;;;24.15;12.28;;;;;;;35.69;40.25;99189.36;2073734;86;20992;-67
2021/07/08 12:53:16;;;;;;;27.30;12.50;;;;;;;35.61;39.79;99180.78;2073338;84;21076;-67
2021/07/08 12:56:17;;;;;;;25.12;11.88;;;;;;;35.71;39.94;99175.47;2073498;86;21027;-67
2021/07/08 12:59:17;;;;;;;23.70;12.18;;;;;;;36.15;37.61;99176.08;2073599;86;21538;-66
2021/07/08 13:02:18;;;;;;;21.97;11.50;;;;;;;36.00;39.17;99174.80;2073506;86;21051;-66
2021/07/08 13:05:19;;;;;;;26.17;11.67;;;;;;;36.44;38.65;99167.20;2073657;86;21589;-66
2021/07/08 13:08:20;;;;;;;23.80;11.60;;;;;;;36.20;37.73;99170.70;2073351;86;21015;-66
2021/07/08 13:11:22;;;;;;;24.15;11.30;;;;;;;35.75;38.27;99163.53;2073680;86;21015;-66
2021/07/08 13:14:23;;;;;;;22.80;11.35;;;;;;;35.93;38.14;99152.33;2073502;86;21538;-67
2021/07/08 13:17:25;;;;;;;23.42;10.38;;;;;;;36.61;38.41;99152.09;2073531;86;21043;-66
2021/07/08 13:20:26;;;;;;;23.35;10.50;;;;;;;37.24;37.25;99149.70;2073598;86;20999;-66
2021/07/08 13:23:26;;;;;;;21.40;9.90;;;;;;;37.70;36.48;99152.48;2073650;86;20992;-66
2021/07/08 13:26:27;;;;;;;20.48;9.90;;;;;;;37.90;35.58;99144.96;2073512;86;21018;-66
2021/07/08 13:29:27;;;;;;;21.02;9.28;;;;;;;38.02;35.12;99147.50;2073640;86;21015;-66
2021/07/08 13:32:28;;;;;;;21.40;8.75;;;;;;;38.15;34.36;99148.37;2073764;85;21027;-66
2021/07/08 13:35:28;;;;;;;22.02;9.73;;;;;;;37.90;32.93;99140.86;2073212;86;21050;-67
2021/07/08 13:38:32;;;;;;;21.50;9.60;;;;;;;37.70;34.66;99145.12;2073698;86;21495;-66
2021/07/08 13:41:31;;;;;;;25.62;9.53;;;;;;;38.07;34.22;99138.73;2049716;86;21039;-66
2021/07/08 13:44:35;;;;;;;22.55;9.38;;;;;;;38.18;34.24;99149.20;2077079;84;20976;-66
2021/07/08 13:47:34;;;;;;;25.00;9.35;;;;;;;37.77;34.46;99146.27;2078177;84;21003;-67
2021/07/08 13:50:35;;;;;;;20.32;8.98;;;;;;;37.47;35.19;99144.98;2084186;84;20994;-67
2021/07/08 13:53:36;;;;;;;21.40;8.65;;;;;;;37.28;34.73;99145.91;2080291;85;21030;-67
2021/07/08 13:56:36;;;;;;;23.65;9.33;;;;;;;36.98;35.14;99145.09;2082871;84;21488;-68
2021/07/08 13:59:37;;;;;;;30.70;9.68;;;;;;;36.73;35.34;99146.47;2082854;85;21010;-66
2021/07/08 14:02:38;;;;;;;21.57;8.90;;;;;;;36.52;35.50;99149.00;2082502;85;21042;-67
2021/07/08 14:05:38;;;;;;;20.75;9.40;;;;;;;36.42;36.21;99147.50;2082403;86;21014;-67